To NAV CANADA Home Page Login to a new session Search on AWWS site Disclaimer Vers la page française équivalente Tips FAQ What's new on the site To the Forecasts and Observations / NOTAM section To "File a Flight Plan" website Publications and other links Update of the User's profile FIC Telephone Numbers My Weather Data Folder Route Weather Data Regional Weather Data Local Weather Data To the Forecasts and Observations / NOTAM section
Request Generated 11/13/2018 at 18:15:25 UTC . Weather information available at that time is displayed.

METAR/TAF

SIOUX LOOKOUT/ON    

METAR CYXL 131800Z 29011G18KT 230V320 8SM -SHSN DRSN BKN022 OVC040 M10/M16 A3025 RMK SC5SC3 CVCTV CLD EMBD SLP281=
METAR CYXL 131700Z 29009G16KT 250V310 8SM -SHSN DRSN BKN024 OVC050 M11/M15 A3026 RMK SC6SC2 VIS N-E 2 CVCTV CLD EMBD SLP283=
METAR CYXL 131600Z 28009G17KT 5SM -SHSN DRSN BKN016 OVC034 M11/M14 A3026 RMK SC5SC3 CU EMBD SLP282=

TAF AMD CYXL 131718Z 1317/1402 30010G20KT P6SM -SHSN BKN025 OVC050
TEMPO 1317/1402 2SM -SHSN OVC020 PROB40 1317/1402 3/4SM -SHSN
VV007
RMK NXT FCST BY 132000Z=
Your time UTC time
Weather data provided by Environment Canada and NAV CANADA